Flight Track Log - Related Links

Times and Time Zones

All times are in EDT time to prevent confusion due to time zone crossing. See the XOJ549 flight status page for this flight to view local times or setup timezone preferences in your user account.

Time Position Orientation Groundspeed Altitude Reporting Facility
EDT Latitude Longitude Course Direction KTS MPH feet Rate Location/Type
05:21PM 33.9353 -118.5236 205° Southwest 240 276 7,200  Level Los Angeles Center
05:22PM 33.8561 -118.5253 181° South 291 335 11,700 2,855 Climbing Los Angeles Center
05:23PM 33.7717 -118.5231 179° South 311 358 13,100 1,824 Climbing Los Angeles Center
05:24PM 33.7119 -118.4486 134° Southeast 348 400 15,500 2,976 Climbing Los Angeles Center
05:25PM 33.7067 -118.3000 92° East 375 432 19,300 3,435 Climbing Los Angeles Center
05:26PM 33.6626 -118.4358 109° East  Level FlightAware Approximate
05:26PM 33.7031 -118.1717 92° East 404 465 22,600  Level Los Angeles Center
05:27PM 33.6989 -118.0297 92° East 429 494 25,100 2,613 Climbing Los Angeles Center
05:29PM 33.6939 -117.8472 92° East 459 528 28,000 2,806 Climbing Los Angeles Center
05:30PM 33.6894 -117.6914 92° East 469 540 30,900 2,294 Climbing Los Angeles Center
05:31PM 33.6836 -117.5347 93° East 471 542 33,200 1,971 Climbing Los Angeles Center
05:32PM 33.6769 -117.3411 92° East 485 558 35,400 2,064 Climbing Los Angeles Center
05:33PM 33.6711 -117.1753 92° East 498 573 37,500 2,129 Climbing Los Angeles Center
05:34PM 33.6653 -117.0153 92° East 487 560 39,800 1,694 Climbing Los Angeles Center
05:35PM 33.6589 -116.8433 93° East 472 543 41,000 581 Climbing Los Angeles Center
05:36PM 33.6508 -116.6811 93° East 483 556 41,000  Level Los Angeles Center
05:37PM 33.6444 -116.5203 93° East 481 554 41,000  Level Los Angeles Center
05:38PM 33.6350 -116.3253 93° East 484 557 41,000  Level Los Angeles Center
05:39PM 33.6281 -116.1622 93° East 486 559 41,000  Level Los Angeles Center
05:40PM 33.6244 -115.9989 91° East 489 563 41,000  Level Los Angeles Center
05:41PM 33.6219 -115.8392 91° East 480 552 41,000  Level Los Angeles Center
05:42PM 33.6169 -115.6786 92° East 482 555 41,000  Level Los Angeles Center
05:43PM 33.6014 -115.5175 97° East 485 558 41,000  Level Los Angeles Center
05:44PM 33.5839 -115.3250 96° East 483 556 41,000  Level Los Angeles Center
05:45PM 33.5722 -115.1981 96° East 481 554 41,000 -532 Level Los Angeles Center
05:46PM 33.5528 -115.0050 97° East 485 558 39,900 -1,824 Descending Los Angeles Center
05:47PM 33.5397 -114.8403 95° East 498 573 37,200 -2,613 Descending Los Angeles Center
05:48PM 33.5206 -114.6700 98° East 514 592 34,500 -2,613 Descending Los Angeles Center
05:49PM 33.5042 -114.5028 97° East 509 586 31,800 -2,613 Descending Los Angeles Center
05:50PM 33.4869 -114.3389 97° East 498 573 29,100 -2,855 Descending Los Angeles Center
05:51PM 33.4681 -114.1400 96° East 503 579 25,900 -1,984 Descending Los Angeles Center
05:53PM 33.4431 -113.9869 101° East 472 543 25,000 -432 Descending Los Angeles Center
05:54PM 33.4414 -113.8350 91° East 474 545 25,000 -624 Level Los Angeles Center
05:55PM 33.4711 -113.6869 76° East 459 528 23,700 -1,790 Descending Los Angeles Center
05:56PM 33.4978 -113.5492 77° East 447 514 21,300 -2,409 Descending Los Angeles Center
05:57PM 33.5281 -113.3803 78° East 422 486 18,600 -2,348 Descending Albuquerque Center
05:58PM 33.5600 -113.2175 77° East 409 471 15,900 -2,158 Descending Albuquerque Center
05:59PM 33.6128 -113.1028 61° Northeast 368 423 13,600 -1,858 Descending Albuquerque Center
06:00PM 33.6508 -113.0444 52° Northeast 351 404 12,400 -1,761 Descending Albuquerque Center
06:01PM 33.7169 -112.9481 50° Northeast 329 379 10,400 -1,790 Descending Albuquerque Center
06:02PM 33.7717 -112.8728 49° Northeast 296 341 8,700 -1,548 Descending Albuquerque Center
06:03PM 33.7981 -112.7922 68° East 272 313 7,200 -1,182 Descending Albuquerque Center
06:04PM 33.8003 -112.6839 89° East 274 315 6,100 -605 Descending Albuquerque Center
06:05PM 33.8006 -112.6122 90° East 263 303 6,000 -104 Descending Albuquerque Center
06:06PM 33.8011 -112.5158 90° East 268 308 5,900 -47 Descending Albuquerque Center
06:07PM 33.8014 -112.4172 90° East 273 314 5,900 39 Level Albuquerque Center
06:09PM 33.8000 -112.3000 91° East 222 255 6,000  Climbing Phoenix TRACON
06:09PM 33.8036 -112.2578 84° East 227 261 5,900 -64 Descending Albuquerque Center
06:10PM 33.7936 -112.1797 99° East 219 252 5,900  Level Albuquerque Center
06:11PM 33.7847 -112.1108 99° East 212 244 5,900  Level Albuquerque Center
06:12PM 33.7764 -112.0428 98° East 207 238 5,900 -390 Level Albuquerque Center
06:13PM 33.7664 -111.9797 101° East 182 209 5,100 -823 Descending Albuquerque Center
06:14PM 33.7317 -111.9344 133° Southeast 185 213 4,200 -823 Descending Albuquerque Center
06:15PM 33.6975 -111.8925 134° Southeast 179 206 3,400 -439 Descending Albuquerque Center
06:16PM 33.6672 -111.8542 133° Southeast 177 204 3,300 -98 Descending Albuquerque Center

Login

Don't have an account? Register now (free) for customized features, flight alerts, and more!